createdAt,value
2022-08-07T00:01:43.687Z,15.02
2022-08-07T00:04:09.612Z,15.05
2022-08-07T00:06:45.605Z,15.07
2022-08-07T00:09:21.087Z,15.09
2022-08-07T00:11:55.270Z,15.11
2022-08-07T00:14:30.150Z,15.13
2022-08-07T00:17:00.571Z,15.12
2022-08-07T00:20:00.557Z,15.12
2022-08-07T00:22:24.718Z,15.11
2022-08-07T00:25:15.667Z,15.08
2022-08-07T00:27:52.966Z,15.04
2022-08-07T00:30:26.706Z,14.98
2022-08-07T00:32:59.542Z,14.92
2022-08-07T00:35:29.906Z,14.87
2022-08-07T00:37:58.311Z,14.83
2022-08-07T00:40:39.655Z,14.81
2022-08-07T00:44:01.581Z,14.75
2022-08-07T00:46:02.163Z,14.69
2022-08-07T00:48:30.922Z,14.66
2022-08-07T00:51:00.407Z,14.63
2022-08-07T00:53:38.577Z,14.59
2022-08-07T00:56:15.149Z,14.54
2022-08-07T00:58:43.688Z,14.49
2022-08-07T01:01:13.380Z,14.44
2022-08-07T01:03:56.771Z,14.40
2022-08-07T01:06:28.714Z,14.37
2022-08-07T01:08:58.635Z,14.34
2022-08-07T01:12:23.838Z,14.29
2022-08-07T01:14:17.002Z,14.27
2022-08-07T01:16:48.475Z,14.23
2022-08-07T01:19:19.906Z,14.19
2022-08-07T01:21:53.453Z,14.13
2022-08-07T01:24:27.134Z,14.10
2022-08-07T01:26:54.163Z,14.06
2022-08-07T01:29:23.664Z,14.03
2022-08-07T01:31:59.697Z,14.02
2022-08-07T01:34:32.114Z,14.01
2022-08-07T01:37:03.527Z,13.98
2022-08-07T01:39:40.535Z,13.94
2022-08-07T01:42:38.185Z,13.92
2022-08-07T01:45:18.110Z,13.89
2022-08-07T01:48:17.647Z,13.86
2022-08-07T01:50:37.758Z,13.83
2022-08-07T01:53:09.878Z,13.77
2022-08-07T01:55:54.719Z,13.74
2022-08-07T01:58:29.312Z,13.72
2022-08-07T02:01:09.452Z,13.70
2022-08-07T02:03:50.535Z,13.67
2022-08-07T02:06:31.289Z,13.65
2022-08-07T02:09:04.296Z,13.60
2022-08-07T02:12:02.848Z,13.58
2022-08-07T02:14:35.817Z,13.54
2022-08-07T02:17:06.220Z,13.52
2022-08-07T02:20:07.652Z,13.51
2022-08-07T02:22:25.988Z,13.51
2022-08-07T02:24:55.602Z,13.50
2022-08-07T02:27:24.903Z,13.48
2022-08-07T02:29:55.459Z,13.45
2022-08-07T02:32:30.152Z,13.42
2022-08-07T02:34:58.356Z,13.39
2022-08-07T02:37:28.168Z,13.35
2022-08-07T02:40:30.046Z,13.31
2022-08-07T02:42:54.811Z,13.25
2022-08-07T02:45:59.025Z,13.23
2022-08-07T02:48:15.650Z,13.20
2022-08-07T02:50:46.224Z,13.18
2022-08-07T02:53:22.486Z,13.16
2022-08-07T02:56:04.138Z,13.13
2022-08-07T02:58:34.437Z,13.09
2022-08-07T03:01:03.099Z,13.04
2022-08-07T03:03:49.276Z,12.98
2022-08-07T03:06:26.262Z,12.92
2022-08-07T03:09:03.653Z,12.91
2022-08-07T03:11:38.999Z,12.89
2022-08-07T03:14:19.656Z,12.87
2022-08-07T03:16:50.021Z,12.86
2022-08-07T03:19:20.299Z,12.87
2022-08-07T03:21:50.461Z,12.88
2022-08-07T03:24:27.005Z,12.87
2022-08-07T03:27:00.374Z,12.87
2022-08-07T03:29:46.155Z,12.86
2022-08-07T03:32:22.162Z,12.84
2022-08-07T03:35:16.713Z,12.84
2022-08-07T03:37:46.397Z,12.84
2022-08-07T03:40:22.319Z,12.85
2022-08-07T03:42:50.879Z,12.86
2022-08-07T03:45:29.810Z,12.88
2022-08-07T03:48:02.194Z,12.98
2022-08-07T03:50:30.830Z,13.10
2022-08-07T03:52:59.483Z,13.22
2022-08-07T03:55:53.406Z,13.37
2022-08-07T03:58:35.251Z,13.55
2022-08-07T04:01:11.154Z,13.77
2022-08-07T04:03:53.246Z,14.01
2022-08-07T04:06:38.067Z,14.25
2022-08-07T04:09:15.260Z,14.46
2022-08-07T04:12:20.846Z,14.68
2022-08-07T04:14:37.998Z,14.94
2022-08-07T04:17:19.993Z,15.16
2022-08-07T04:19:51.944Z,15.39
2022-08-07T04:22:28.919Z,15.70
2022-08-07T04:25:01.333Z,16.02
2022-08-07T04:27:38.132Z,16.35
2022-08-07T04:30:21.661Z,16.67
2022-08-07T04:33:09.520Z,17.03
2022-08-07T04:35:38.119Z,17.36
2022-08-07T04:38:13.196Z,17.65
2022-08-07T04:40:52.955Z,17.95
2022-08-07T04:44:11.933Z,18.29
2022-08-07T04:47:08.143Z,18.55
2022-08-07T04:50:03.523Z,18.78
2022-08-07T04:52:52.980Z,19.05
2022-08-07T04:58:15.665Z,19.35
2022-08-07T05:01:44.301Z,20.17
2022-08-07T05:04:33.459Z,20.49
2022-08-07T05:07:20.989Z,20.87
2022-08-07T05:10:13.492Z,21.21
2022-08-07T05:14:44.806Z,21.58
2022-08-07T05:15:59.166Z,21.92
2022-08-07T05:18:32.057Z,22.16
2022-08-07T05:21:05.347Z,22.30
2022-08-07T05:23:44.991Z,22.48
2022-08-07T05:26:23.705Z,22.72
2022-08-07T05:28:55.932Z,22.92
2022-08-07T05:31:34.579Z,23.11
2022-08-07T05:34:11.226Z,23.30
2022-08-07T05:36:52.695Z,23.49
2022-08-07T05:40:13.549Z,23.70
2022-08-07T05:42:33.613Z,23.85
2022-08-07T05:45:25.819Z,24.02
2022-08-07T05:48:02.158Z,24.26
2022-08-07T05:50:33.746Z,24.44
2022-08-07T05:53:02.111Z,24.55
2022-08-07T05:56:02.340Z,24.73
2022-08-07T05:58:35.982Z,24.88
2022-08-07T06:01:10.561Z,25.01
2022-08-07T06:04:01.331Z,25.20
2022-08-07T06:06:35.698Z,25.24
2022-08-07T06:09:05.011Z,25.31
2022-08-07T06:11:34.289Z,25.42
2022-08-07T06:14:11.479Z,25.55
2022-08-07T06:16:50.587Z,25.70
2022-08-07T06:19:51.766Z,25.78
2022-08-07T06:22:23.283Z,25.79
2022-08-07T06:25:01.449Z,25.86
2022-08-07T06:27:44.065Z,25.88
2022-08-07T06:30:32.145Z,25.84
2022-08-07T06:33:15.697Z,25.89
2022-08-07T06:35:48.228Z,26.02
2022-08-07T06:38:32.350Z,26.15
2022-08-07T06:41:02.682Z,26.06
2022-08-07T06:43:39.979Z,25.70
2022-08-07T06:46:12.431Z,25.42
2022-08-07T06:48:42.116Z,25.12
2022-08-07T06:51:30.970Z,24.85
2022-08-07T06:55:28.260Z,24.56
2022-08-07T06:56:51.022Z,24.41
2022-08-07T07:00:14.657Z,24.17
2022-08-07T07:02:54.370Z,24.12
2022-08-07T07:05:14.643Z,24.03
2022-08-07T07:08:06.927Z,24.03
2022-08-07T07:10:36.324Z,23.91
2022-08-07T07:13:56.206Z,23.98
2022-08-07T07:16:27.470Z,24.21
2022-08-07T07:19:11.493Z,24.26
2022-08-07T07:22:05.391Z,24.24
2022-08-07T07:24:43.172Z,24.17
2022-08-07T07:27:35.832Z,23.95
2022-08-07T07:30:26.339Z,23.74
2022-08-07T07:33:01.164Z,23.64
2022-08-07T07:35:33.566Z,23.51
2022-08-07T07:38:10.404Z,23.14
2022-08-07T07:40:42.351Z,22.82
2022-08-07T07:43:18.356Z,22.45
2022-08-07T07:46:40.606Z,22.32
2022-08-07T07:48:36.798Z,22.29
2022-08-07T07:51:07.791Z,22.29
2022-08-07T07:53:51.889Z,22.21
2022-08-07T07:56:30.207Z,22.15
2022-08-07T07:59:02.231Z,21.94
2022-08-07T08:02:02.621Z,21.77
2022-08-07T08:04:19.615Z,21.64
2022-08-07T08:06:54.129Z,21.70
2022-08-07T08:09:24.859Z,21.62
2022-08-07T08:12:03.060Z,21.42
2022-08-07T08:14:36.724Z,21.26
2022-08-07T08:17:56.181Z,21.34
2022-08-07T08:20:23.137Z,21.42
2022-08-07T08:23:09.896Z,21.32
2022-08-07T08:25:57.621Z,21.38
2022-08-07T08:28:38.589Z,21.47
2022-08-07T08:31:15.826Z,21.47
2022-08-07T08:33:50.205Z,21.53
2022-08-07T08:36:30.146Z,21.61
2022-08-07T08:39:02.173Z,21.66
2022-08-07T08:41:58.137Z,21.73
2022-08-07T08:44:41.266Z,21.79
2022-08-07T08:47:51.786Z,21.87
2022-08-07T08:50:28.151Z,21.98
2022-08-07T08:53:09.000Z,22.04
2022-08-07T08:55:54.955Z,22.03
2022-08-07T08:58:41.546Z,21.99
2022-08-07T09:01:29.772Z,21.99
2022-08-07T09:04:28.610Z,21.97
2022-08-07T09:07:02.288Z,21.96
2022-08-07T09:09:58.018Z,21.91
2022-08-07T09:12:33.550Z,21.92
2022-08-07T09:16:25.605Z,21.99
2022-08-07T09:18:41.140Z,21.93
2022-08-07T09:22:09.649Z,21.99
2022-08-07T09:24:58.994Z,22.10
2022-08-07T09:27:38.387Z,22.06
2022-08-07T09:30:27.942Z,21.82
2022-08-07T09:33:57.033Z,21.95
2022-08-07T09:36:37.458Z,22.19
2022-08-07T09:39:54.663Z,22.37
2022-08-07T09:42:24.946Z,22.54
2022-08-07T09:47:37.286Z,22.64
2022-08-07T09:48:19.442Z,22.86
2022-08-07T09:50:59.905Z,23.13
2022-08-07T09:53:40.756Z,23.24
2022-08-07T09:56:43.323Z,23.30
2022-08-07T09:59:44.549Z,23.38
2022-08-07T10:02:55.068Z,23.44
2022-08-07T10:05:59.253Z,23.67
2022-08-07T10:08:31.735Z,23.76
2022-08-07T10:12:00.055Z,23.80
2022-08-07T10:14:30.361Z,23.77
2022-08-07T10:17:23.032Z,23.58
2022-08-07T10:20:13.033Z,23.63
2022-08-07T10:22:58.757Z,23.85
2022-08-07T10:25:45.931Z,23.96
2022-08-07T10:28:35.562Z,24.15
2022-08-07T10:31:38.835Z,24.33
2022-08-07T10:34:39.615Z,24.09
2022-08-07T10:38:00.162Z,23.52
2022-08-07T10:41:01.001Z,23.14
2022-08-07T10:43:34.719Z,22.81
2022-08-07T10:46:12.521Z,22.71
2022-08-07T10:48:59.961Z,22.71
2022-08-07T10:52:02.185Z,22.94
2022-08-07T10:55:01.754Z,23.38
2022-08-07T10:57:56.416Z,23.72
2022-08-07T11:00:39.308Z,23.89
2022-08-07T11:03:37.820Z,24.02
2022-08-07T11:06:40.488Z,23.85
2022-08-07T11:10:09.469Z,23.43
2022-08-07T11:12:18.981Z,23.20
2022-08-07T11:15:02.395Z,23.21
2022-08-07T11:17:46.069Z,23.35
2022-08-07T11:20:32.426Z,23.61
2022-08-07T11:23:20.784Z,23.89
2022-08-07T11:26:13.146Z,24.20
2022-08-07T11:28:55.333Z,24.43
2022-08-07T11:31:26.492Z,24.52
2022-08-07T11:34:21.190Z,24.45
2022-08-07T11:37:00.456Z,24.24
2022-08-07T11:40:00.192Z,23.96
2022-08-07T11:42:35.541Z,23.91
2022-08-07T11:45:35.469Z,23.81
2022-08-07T11:48:29.688Z,23.86
2022-08-07T11:51:09.055Z,24.11
2022-08-07T11:54:01.897Z,24.19
2022-08-07T11:56:48.618Z,24.16
2022-08-07T12:00:11.340Z,24.04
2022-08-07T12:02:52.204Z,24.09
2022-08-07T12:05:41.454Z,24.22
2022-08-07T12:08:34.515Z,24.34
2022-08-07T12:11:21.401Z,24.34
2022-08-07T12:14:07.883Z,24.20
2022-08-07T12:17:04.241Z,24.11
2022-08-07T12:20:02.838Z,23.88
2022-08-07T12:23:09.605Z,23.61
2022-08-07T12:26:03.390Z,23.48
2022-08-07T12:28:58.320Z,23.34
2022-08-07T12:32:02.104Z,23.30
2022-08-07T12:34:33.022Z,23.50
2022-08-07T12:37:01.018Z,23.81
2022-08-07T12:39:43.137Z,24.05
2022-08-07T12:42:13.292Z,23.95
2022-08-07T12:44:45.438Z,23.93
2022-08-07T12:47:40.514Z,24.03
2022-08-07T12:50:49.303Z,23.91
2022-08-07T12:54:23.822Z,23.62
2022-08-07T12:56:39.510Z,23.64
2022-08-07T12:59:08.596Z,23.64
2022-08-07T13:01:50.459Z,23.76
2022-08-07T13:04:34.068Z,23.92
2022-08-07T13:08:11.667Z,24.03
2022-08-07T13:10:29.092Z,24.13
2022-08-07T13:13:48.337Z,24.22
2022-08-07T13:16:31.744Z,24.37
2022-08-07T13:19:45.884Z,24.46
2022-08-07T13:22:30.142Z,24.31
2022-08-07T13:25:06.121Z,24.17
2022-08-07T13:28:12.829Z,24.27
2022-08-07T13:30:53.151Z,24.27
2022-08-07T13:34:30.523Z,24.16
2022-08-07T13:36:26.211Z,24.07
2022-08-07T13:39:28.262Z,24.09
2022-08-07T13:42:05.820Z,23.98
2022-08-07T13:44:38.305Z,24.10
2022-08-07T13:47:09.203Z,24.22
2022-08-07T13:50:32.540Z,24.28
2022-08-07T13:52:38.109Z,24.24
2022-08-07T13:55:19.631Z,24.07
2022-08-07T13:58:28.098Z,23.91
2022-08-07T14:01:24.494Z,23.83
2022-08-07T14:04:07.034Z,23.86
2022-08-07T14:06:41.468Z,23.89
2022-08-07T14:09:17.029Z,23.90
2022-08-07T14:11:53.195Z,23.93
2022-08-07T14:14:38.205Z,23.96
2022-08-07T14:17:32.233Z,23.85
2022-08-07T14:20:43.674Z,23.74
2022-08-07T14:24:00.186Z,23.79
2022-08-07T14:26:29.788Z,23.77
2022-08-07T14:29:08.596Z,23.75
2022-08-07T14:31:42.399Z,23.77
2022-08-07T14:34:12.163Z,23.85
2022-08-07T14:36:55.980Z,23.88
2022-08-07T14:40:16.470Z,23.91
2022-08-07T14:42:20.546Z,23.91
2022-08-07T14:47:47.067Z,23.96
2022-08-07T14:50:19.804Z,23.95
2022-08-07T14:52:50.217Z,23.95
2022-08-07T14:55:18.017Z,23.97
2022-08-07T14:57:54.639Z,24.03
2022-08-07T15:00:45.699Z,24.01
2022-08-07T15:03:21.674Z,23.97
2022-08-07T15:06:09.338Z,23.89
2022-08-07T15:08:47.749Z,23.80
2022-08-07T15:11:48.899Z,23.66
2022-08-07T15:14:14.602Z,23.66
2022-08-07T15:16:54.446Z,23.62
2022-08-07T15:20:31.284Z,23.55
2022-08-07T15:22:29.278Z,23.56
2022-08-07T15:25:12.891Z,23.58
2022-08-07T15:28:32.317Z,23.59
2022-08-07T15:30:36.009Z,23.62
2022-08-07T15:33:33.794Z,23.61
2022-08-07T15:36:07.082Z,23.59
2022-08-07T15:38:58.841Z,23.57
2022-08-07T15:42:46.003Z,23.52
2022-08-07T15:44:16.700Z,23.50
2022-08-07T15:46:50.003Z,23.40
2022-08-07T15:50:04.267Z,23.30
2022-08-07T15:52:30.700Z,23.23
2022-08-07T15:55:08.907Z,23.21
2022-08-07T15:57:48.711Z,23.26
2022-08-07T16:00:31.002Z,23.29
2022-08-07T16:03:04.877Z,23.40
2022-08-07T16:05:33.248Z,23.40
2022-08-07T16:08:37.980Z,23.37
2022-08-07T16:11:28.765Z,23.29
2022-08-07T16:14:04.737Z,23.23
2022-08-07T16:16:48.205Z,23.23
2022-08-07T16:19:41.808Z,23.25
2022-08-07T16:22:33.754Z,23.24
2022-08-07T16:25:23.459Z,23.21
2022-08-07T16:30:06.121Z,23.03
2022-08-07T16:31:51.505Z,22.95
2022-08-07T16:34:53.247Z,22.87
2022-08-07T16:38:04.117Z,22.79
2022-08-07T16:40:56.797Z,22.70
2022-08-07T16:44:47.419Z,22.65
2022-08-07T16:47:28.899Z,22.57
2022-08-07T16:50:39.245Z,22.54
2022-08-07T16:54:01.942Z,22.51
2022-08-07T16:56:45.558Z,22.45
2022-08-07T16:59:44.160Z,22.36
2022-08-07T17:02:51.639Z,22.29
2022-08-07T17:06:01.678Z,22.29
2022-08-07T17:08:17.111Z,22.29
2022-08-07T17:10:56.119Z,22.25
2022-08-07T17:14:19.513Z,22.20
2022-08-07T17:16:55.602Z,22.23
2022-08-07T17:20:02.287Z,22.21
2022-08-07T17:22:37.676Z,22.20
2022-08-07T17:25:18.375Z,22.16
2022-08-07T17:27:58.159Z,22.09
2022-08-07T17:30:30.067Z,22.02
2022-08-07T17:34:09.217Z,21.99
2022-08-07T17:36:13.487Z,21.96
2022-08-07T17:39:10.640Z,21.94
2022-08-07T17:42:04.129Z,21.89
2022-08-07T17:44:54.538Z,21.82
2022-08-07T17:47:41.863Z,21.76
2022-08-07T17:50:31.087Z,21.66
2022-08-07T17:53:23.603Z,21.56
2022-08-07T17:56:26.202Z,21.49
2022-08-07T17:59:02.882Z,21.43
2022-08-07T18:01:42.568Z,21.36
2022-08-07T18:04:31.052Z,21.26
2022-08-07T18:07:28.714Z,21.16
2022-08-07T18:12:07.563Z,21.05
2022-08-07T18:13:41.185Z,20.92
2022-08-07T18:16:33.036Z,20.80
2022-08-07T18:21:06.659Z,20.69
2022-08-07T18:22:27.239Z,20.56
2022-08-07T18:25:01.331Z,20.45
2022-08-07T18:27:59.708Z,20.39
2022-08-07T18:30:51.156Z,20.32
2022-08-07T18:33:55.072Z,20.21
2022-08-07T18:36:41.856Z,20.13
2022-08-07T18:40:07.290Z,20.01
2022-08-07T18:42:43.554Z,19.87
2022-08-07T18:45:39.779Z,19.76
2022-08-07T18:48:09.692Z,19.67
2022-08-07T18:50:52.316Z,19.58
2022-08-07T18:53:40.750Z,19.52
2022-08-07T18:56:31.843Z,19.43
2022-08-07T18:59:47.233Z,19.34
2022-08-07T19:02:18.305Z,19.25
2022-08-07T19:06:03.183Z,19.17
2022-08-07T19:08:28.399Z,19.06
2022-08-07T19:11:34.729Z,18.98
2022-08-07T19:14:24.529Z,18.92
2022-08-07T19:17:05.556Z,18.86
2022-08-07T19:19:57.658Z,18.80
2022-08-07T19:23:18.389Z,18.73
2022-08-07T19:26:23.631Z,18.64
2022-08-07T19:30:55.676Z,18.57
2022-08-07T19:32:10.703Z,18.52
2022-08-07T19:34:34.200Z,18.46
2022-08-07T19:37:10.348Z,18.42
2022-08-07T19:40:02.065Z,18.36
2022-08-07T19:42:31.869Z,18.32
2022-08-07T19:45:13.767Z,18.28
2022-08-07T19:48:01.325Z,18.23
2022-08-07T19:50:42.984Z,18.18
2022-08-07T19:54:30.888Z,18.14
2022-08-07T19:56:12.228Z,18.10
2022-08-07T19:58:54.337Z,18.06
2022-08-07T20:01:22.238Z,18.02
2022-08-07T20:03:55.418Z,17.97
2022-08-07T20:06:30.946Z,17.94
2022-08-07T20:09:01.348Z,17.91
2022-08-07T20:12:00.997Z,17.88
2022-08-07T20:14:23.951Z,17.85
2022-08-07T20:17:02.633Z,17.82
2022-08-07T20:19:47.509Z,17.80
2022-08-07T20:22:29.005Z,17.78
2022-08-07T20:25:06.150Z,17.77
2022-08-07T20:27:46.038Z,17.74
2022-08-07T20:30:21.861Z,17.73
2022-08-07T20:32:54.493Z,17.71
2022-08-07T20:35:26.549Z,17.69
2022-08-07T20:37:59.672Z,17.66
2022-08-07T20:40:34.318Z,17.63
2022-08-07T20:43:14.891Z,17.60
2022-08-07T20:46:24.196Z,17.55
2022-08-07T20:48:58.123Z,17.51
2022-08-07T20:51:35.830Z,17.45
2022-08-07T20:54:07.225Z,17.40
2022-08-07T20:56:41.837Z,17.34
2022-08-07T21:00:05.125Z,17.29
2022-08-07T21:02:32.253Z,17.23
2022-08-07T21:05:10.328Z,17.17
2022-08-07T21:07:49.458Z,17.09
2022-08-07T21:10:29.567Z,17.03
2022-08-07T21:13:02.675Z,16.96
2022-08-07T21:15:47.995Z,16.90
2022-08-07T21:18:29.559Z,16.84
2022-08-07T21:21:03.396Z,16.78
2022-08-07T21:23:50.260Z,16.73
2022-08-07T21:26:24.521Z,16.70
2022-08-07T21:29:05.448Z,16.65
2022-08-07T21:32:47.090Z,16.59
2022-08-07T21:35:11.344Z,16.51
2022-08-07T21:37:58.714Z,16.46
2022-08-07T21:40:41.163Z,16.42
2022-08-07T21:43:10.587Z,16.37
2022-08-07T21:46:10.137Z,16.33
2022-08-07T21:48:56.994Z,16.28
2022-08-07T21:51:54.936Z,16.24
2022-08-07T21:54:33.300Z,16.19
2022-08-07T21:57:39.625Z,16.14
2022-08-07T22:00:23.033Z,16.08
2022-08-07T22:03:11.119Z,16.02
2022-08-07T22:05:54.489Z,15.96
2022-08-07T22:08:26.308Z,15.92
2022-08-07T22:10:59.917Z,15.86
2022-08-07T22:13:52.860Z,15.80
2022-08-07T22:16:39.292Z,15.74
2022-08-07T22:19:23.503Z,15.72
2022-08-07T22:22:21.117Z,15.70
2022-08-07T22:24:54.574Z,15.67
2022-08-07T22:27:56.274Z,15.64
2022-08-07T22:30:20.625Z,15.61
2022-08-07T22:33:56.774Z,15.58
2022-08-07T22:36:52.618Z,15.53
2022-08-07T22:39:53.432Z,15.49
2022-08-07T22:42:54.061Z,15.45
2022-08-07T22:45:21.952Z,15.40
2022-08-07T22:49:02.141Z,15.33
2022-08-07T22:52:00.516Z,15.28
2022-08-07T22:55:30.663Z,15.25
2022-08-07T22:58:29.824Z,15.20
2022-08-07T23:01:49.821Z,15.17
2022-08-07T23:04:56.793Z,15.12
2022-08-07T23:07:42.233Z,15.10
2022-08-07T23:10:37.796Z,15.06
2022-08-07T23:13:18.599Z,15.04
2022-08-07T23:16:46.757Z,15.02
2022-08-07T23:19:47.499Z,15.00
2022-08-07T23:22:49.758Z,14.95
2022-08-07T23:25:48.337Z,14.93
2022-08-07T23:28:44.375Z,14.88
2022-08-07T23:32:50.198Z,14.83
2022-08-07T23:34:47.015Z,14.78
2022-08-07T23:37:23.006Z,14.74
2022-08-07T23:40:03.084Z,14.70
2022-08-07T23:43:17.067Z,14.62
2022-08-07T23:46:10.840Z,14.57
2022-08-07T23:49:15.677Z,14.53
2022-08-07T23:52:58.161Z,14.50
2022-08-07T23:54:52.795Z,14.48
2022-08-07T23:57:27.711Z,14.44
